Space — 7SY4071 — position and weather

sailwx.info

Track history (hours):
 
Tides and Currents Weather Stations Pressure Air Temp Water Temp Dewpoint Dewpoint Depression Visibility Wind Speed Wind Dir Waves Ship Positions

Space

Last reported at 2017-Oct-13 09:10 UTC. Time now 2017-Oct-18 02:23 UTC.
Position N 28°58' W 013°32'.

Length 12 m.

Type: Sailing vessel. MMSI: 265629770.

Date/timePositionNaut miles runAvg speedWind from/ knotsBaromVisibWave heightAir tempDewpointWater temp
2017-Oct-13 09:10N 28°58' W 013°32'0 0.0
2017-Oct-13 08:58N 28°58' W 013°32'0 0.0
2017-Oct-13 08:28N 28°58' W 013°32'0 1.0
2017-Oct-13 08:00N 28°58' W 013°32'2 3.2
2017-Oct-13 07:30N 28°58' W 013°30'2 4.8
2017-Oct-13 06:59N 28°59' W 013°28'2 4.7
2017-Oct-13 06:29N 29°00' W 013°26'  
2017-Oct-09 22:42N 36°03' W 009°20'2 6.0
2017-Oct-09 22:27N 36°04' W 009°20'4 5.7
2017-Oct-09 21:50N 36°07' W 009°18'2 6.0
2017-Oct-09 21:30N 36°09' W 009°16'53 6.7
2017-Oct-09 13:34N 36°56' W 008°46'3 6.5
2017-Oct-09 13:10N 36°58' W 008°44'5 6.8
2017-Oct-09 12:30N 37°02' W 008°42'4 6.7
2017-Oct-09 11:57N 37°05' W 008°40'2 0.5
2017-Oct-09 08:58N 37°07' W 008°41'  
Track history (hours):
 
Tides and Currents Weather Stations Pressure Air Temp Water Temp Dewpoint Dewpoint Depression Visibility Wind Speed Wind Dir Waves Ship Positions

Space

Last reported at 2017-Oct-13 09:10 UTC. Time now 2017-Oct-18 02:23 UTC.
Position N 28°58' W 013°32'.

Length 12 m.

Type: Sailing vessel. MMSI: 265629770.

Date/timePositionNaut miles runAvg speedWind from/ knotsBaromVisibWave heightAir tempDewpointWater temp
2017-Oct-13 09:10N 28°58' W 013°32'0 0.0
2017-Oct-13 08:58N 28°58' W 013°32'0 0.0
2017-Oct-13 08:28N 28°58' W 013°32'0 1.0
2017-Oct-13 08:00N 28°58' W 013°32'2 3.2
2017-Oct-13 07:30N 28°58' W 013°30'2 4.8
2017-Oct-13 06:59N 28°59' W 013°28'2 4.7
2017-Oct-13 06:29N 29°00' W 013°26'  
2017-Oct-09 22:42N 36°03' W 009°20'2 6.0
2017-Oct-09 22:27N 36°04' W 009°20'4 5.7
2017-Oct-09 21:50N 36°07' W 009°18'2 6.0
2017-Oct-09 21:30N 36°09' W 009°16'53 6.7
2017-Oct-09 13:34N 36°56' W 008°46'3 6.5
2017-Oct-09 13:10N 36°58' W 008°44'5 6.8
2017-Oct-09 12:30N 37°02' W 008°42'4 6.7
2017-Oct-09 11:57N 37°05' W 008°40'2 0.5
2017-Oct-09 08:58N 37°07' W 008°41'  

Dump ship's entire track history